Time;durP1;ratioP1;P1;durP2;ratioP2;P2;SDS_P1;SDS_P2;PMS_P1;PMS_P2;Temp;Humidity;BMP_temperature;BMP_pressure;BME280_temperature;BME280_humidity;BME280_pressure;Samples;Min_cycle;Max_cycle;Signal;HPM_P1;HPM_P2
2023/09/08 00:01:37;;;;;;;0.00;0.00;;;;;;;21.02;63.44;100613.06;6349970;28;20105;-73
2023/09/08 00:04:38;;;;;;;0.00;0.00;;;;;;;20.85;62.99;100612.03;6350420;28;20507;-73
2023/09/08 00:07:39;;;;;;;0.00;0.00;;;;;;;20.68;63.84;100609.19;6350682;28;20580;-73
2023/09/08 00:10:40;;;;;;;0.00;0.00;;;;;;;20.69;63.84;100608.22;6351466;28;20276;-73
2023/09/08 00:13:41;;;;;;;0.00;0.00;;;;;;;20.54;64.50;100620.22;6350125;28;20051;-73
2023/09/08 00:16:43;;;;;;;0.00;0.00;;;;;;;20.66;64.41;100615.63;6350036;28;20051;-73
2023/09/08 00:19:44;;;;;;;0.03;0.03;;;;;;;20.61;64.25;100617.84;6349730;28;20138;-72
2023/09/08 00:22:45;;;;;;;0.00;0.00;;;;;;;20.67;64.35;100611.97;6349756;28;20055;-73
2023/09/08 00:25:45;;;;;;;0.00;0.00;;;;;;;20.59;64.57;100607.41;6349659;28;20337;-73
2023/09/08 00:28:49;;;;;;;0.00;0.00;;;;;;;20.55;64.67;100616.63;6349639;28;20463;-73
2023/09/08 00:31:50;;;;;;;0.00;0.00;;;;;;;20.47;65.44;100609.38;6350649;28;20043;-73
2023/09/08 00:34:51;;;;;;;0.00;0.00;;;;;;;20.42;65.28;100610.78;6349408;28;20466;-73
2023/09/08 00:37:52;;;;;;;0.00;0.00;;;;;;;20.51;65.11;100610.75;6350467;28;20715;-72
2023/09/08 00:40:53;;;;;;;0.45;0.45;;;;;;;20.53;65.24;100616.75;6347004;28;20052;-73
2023/09/08 00:43:54;;;;;;;0.00;0.00;;;;;;;20.48;64.62;100604.91;6350423;28;20467;-73
2023/09/08 00:46:58;;;;;;;0.00;0.00;;;;;;;20.50;65.56;100610.88;6350347;28;20055;-72
2023/09/08 00:49:58;;;;;;;0.15;0.15;;;;;;;20.38;65.58;100604.91;6348350;28;20048;-72
2023/09/08 00:52:59;;;;;;;0.00;0.00;;;;;;;20.37;64.99;100610.38;6349263;28;20047;-73
2023/09/08 00:56:00;;;;;;;0.00;0.00;;;;;;;20.29;65.58;100600.50;6349961;28;20051;-72
2023/09/08 00:59:04;;;;;;;0.00;0.00;;;;;;;20.17;66.18;100602.47;6349600;28;20529;-73
2023/09/08 01:02:05;;;;;;;0.00;0.00;;;;;;;20.11;66.00;100592.44;6348364;28;20058;-73
2023/09/08 01:05:06;;;;;;;0.00;0.00;;;;;;;20.18;66.20;100603.28;6348867;28;20488;-72
2023/09/08 01:08:08;;;;;;;0.00;0.00;;;;;;;20.18;65.92;100598.00;6349437;28;20047;-72
2023/09/08 01:11:08;;;;;;;0.00;0.00;;;;;;;20.12;65.57;100607.38;6348311;28;20047;-72
2023/09/08 01:14:12;;;;;;;0.00;0.00;;;;;;;20.08;66.11;100596.22;6348845;28;20085;-73
2023/09/08 01:17:13;;;;;;;0.00;0.00;;;;;;;20.02;66.34;100595.94;6349546;28;20126;-73
2023/09/08 01:20:41;;;;;;;0.00;0.00;;;;;;;20.16;65.67;100592.00;6348003;28;20099;-72
2023/09/08 01:23:56;;;;;;;0.00;0.00;;;;;;;20.09;66.41;100594.38;6348595;28;20055;-73
2023/09/08 01:26:58;;;;;;;0.00;0.00;;;;;;;19.98;65.92;100583.97;6348132;28;20052;-73
2023/09/08 01:30:00;;;;;;;0.00;0.00;;;;;;;19.88;66.16;100587.44;6348259;28;20047;-73
2023/09/08 01:33:01;;;;;;;;;;;;;;;19.91;66.14;100586.31;6348631;28;20048;-72
2023/09/08 01:36:02;;;;;;;0.00;0.00;;;;;;;19.92;66.65;100591.50;6347991;28;19920;-73
2023/09/08 01:39:03;;;;;;;0.00;0.00;;;;;;;19.95;66.57;100589.53;6348103;28;20051;-73
2023/09/08 01:42:04;;;;;;;0.08;0.08;;;;;;;19.85;67.06;100590.41;6348926;28;20112;-72
2023/09/08 01:45:06;;;;;;;0.00;0.00;;;;;;;19.83;66.40;100595.00;6347404;28;20047;-72
2023/09/08 01:48:09;;;;;;;0.00;0.00;;;;;;;19.76;66.00;100593.88;6347592;28;20109;-72
2023/09/08 01:51:10;;;;;;;0.00;0.00;;;;;;;19.69;66.72;100588.28;6347543;28;20411;-73
2023/09/08 01:54:13;;;;;;;0.00;0.00;;;;;;;19.49;66.71;100591.88;6347077;28;20052;-72
2023/09/08 01:57:14;;;;;;;0.00;0.00;;;;;;;19.49;67.32;100581.31;6348861;28;20055;-72
2023/09/08 02:00:16;;;;;;;0.00;0.00;;;;;;;19.55;66.62;100583.38;6348463;28;20104;-72
2023/09/08 02:03:17;;;;;;;0.00;0.00;;;;;;;19.49;66.87;100587.41;6348203;28;20124;-72
2023/09/08 02:06:18;;;;;;;0.00;0.00;;;;;;;19.37;66.96;100572.66;6347631;28;20071;-72
2023/09/08 02:09:22;;;;;;;0.00;0.00;;;;;;;19.43;66.75;100584.50;6348122;28;20066;-72
2023/09/08 02:12:25;;;;;;;0.30;0.30;;;;;;;19.39;67.23;100586.56;6348276;28;20051;-73
2023/09/08 02:15:26;;;;;;;0.00;0.00;;;;;;;19.40;66.70;100588.25;6348148;27;20091;-73
2023/09/08 02:18:28;;;;;;;0.70;0.70;;;;;;;19.33;66.70;100590.63;6346820;28;20540;-72
2023/09/08 02:21:29;;;;;;;0.00;0.00;;;;;;;19.31;66.67;100584.63;6346630;28;20051;-73
2023/09/08 02:24:30;;;;;;;0.00;0.00;;;;;;;19.40;66.49;100585.63;6348072;28;20391;-73
2023/09/08 02:27:33;;;;;;;0.00;0.00;;;;;;;19.47;65.79;100584.06;6346729;28;20444;-73
2023/09/08 02:30:34;;;;;;;0.00;0.00;;;;;;;19.40;66.07;100587.44;6347894;28;20051;-73
2023/09/08 02:33:35;;;;;;;0.00;0.00;;;;;;;19.34;66.22;100575.59;6347776;28;20056;-73
2023/09/08 02:36:36;;;;;;;0.00;0.00;;;;;;;19.32;66.01;100575.72;6347893;28;20052;-72
2023/09/08 02:39:37;;;;;;;0.00;0.00;;;;;;;19.28;66.23;100581.44;6345572;28;20051;-73
2023/09/08 02:42:37;;;;;;;0.00;0.00;;;;;;;19.17;66.50;100574.44;6345890;28;20054;-72
2023/09/08 02:45:38;;;;;;;0.00;0.00;;;;;;;19.24;66.84;100587.97;6362703;27;20051;-72
2023/09/08 02:48:40;;;;;;;0.00;0.00;;;;;;;19.24;66.54;100580.03;6345638;28;20062;-73
2023/09/08 02:51:43;;;;;;;0.10;0.10;;;;;;;19.12;66.23;100576.66;6347506;27;20047;-73
2023/09/08 02:54:44;;;;;;;0.00;0.00;;;;;;;19.16;66.21;100575.41;6347281;28;20766;-73
2023/09/08 02:57:47;;;;;;;0.00;0.00;;;;;;;19.14;66.83;100564.13;6346992;28;20052;-73
2023/09/08 03:00:50;;;;;;;0.00;0.00;;;;;;;19.09;66.40;100569.84;6346140;28;20044;-73
2023/09/08 03:03:51;;;;;;;0.00;0.00;;;;;;;19.05;66.96;100571.06;6346036;28;20047;-72
2023/09/08 03:06:52;;;;;;;0.00;0.00;;;;;;;19.12;66.62;100572.19;6362432;27;20055;-72
2023/09/08 03:09:53;;;;;;;0.00;0.00;;;;;;;19.04;66.83;100566.75;6346112;28;20096;-73
2023/09/08 03:12:54;;;;;;;0.00;0.00;;;;;;;19.03;66.60;100569.56;6347231;28;20134;-72
2023/09/08 03:15:56;;;;;;;0.63;0.63;;;;;;;18.91;67.51;100577.56;6345826;28;20055;-73
2023/09/08 03:18:58;;;;;;;0.00;0.00;;;;;;;18.96;67.53;100573.69;6345615;28;20386;-72
2023/09/08 03:21:59;;;;;;;;;;;;;;;18.97;67.26;100578.03;6345957;28;20046;-73
2023/09/08 03:25:00;;;;;;;0.00;0.00;;;;;;;18.87;67.02;100572.69;6347095;28;19919;-73
2023/09/08 03:28:03;;;;;;;0.00;0.00;;;;;;;18.80;67.70;100575.06;6345795;28;20143;-73
2023/09/08 03:31:04;;;;;;;0.00;0.00;;;;;;;18.76;66.94;100575.41;6346955;28;20048;-73
2023/09/08 03:34:05;;;;;;;0.00;0.00;;;;;;;18.80;67.16;100572.41;6346287;28;20055;-73
2023/09/08 03:37:06;;;;;;;0.00;0.00;;;;;;;18.68;67.26;100574.28;6345584;28;20410;-73
2023/09/08 03:40:08;;;;;;;0.00;0.00;;;;;;;18.66;67.82;100568.28;6344287;28;20387;-72
2023/09/08 03:43:10;;;;;;;0.00;0.00;;;;;;;18.55;68.70;100572.81;6344725;28;20043;-72
2023/09/08 03:46:10;;;;;;;0.00;0.00;;;;;;;18.55;68.30;100573.66;6328289;28;20511;-72
2023/09/08 03:49:11;;;;;;;0.00;0.00;;;;;;;18.52;68.51;100571.28;6320622;28;20078;-73
2023/09/08 03:52:12;;;;;;;0.00;0.00;;;;;;;18.46;69.13;100577.09;6321481;28;20131;-73
2023/09/08 03:55:13;;;;;;;0.00;0.00;;;;;;;18.37;69.01;100578.72;6321347;28;20146;-73
2023/09/08 03:58:15;;;;;;;0.00;0.00;;;;;;;18.39;69.44;100584.72;6320190;28;20056;-73
2023/09/08 04:01:16;;;;;;;;;;;;;;;18.31;69.42;100585.38;6321245;28;20048;-73
2023/09/08 04:04:19;;;;;;;0.00;0.00;;;;;;;18.38;68.82;100577.75;6319898;28;19942;-73
2023/09/08 04:07:20;;;;;;;0.00;0.00;;;;;;;18.38;69.46;100576.91;6321284;28;20048;-73
2023/09/08 04:10:21;;;;;;;0.00;0.00;;;;;;;18.27;69.73;100585.75;6336875;28;20067;-73
2023/09/08 04:13:22;;;;;;;0.00;0.00;;;;;;;18.22;69.81;100598.50;6321206;28;20055;-73
2023/09/08 04:16:23;;;;;;;0.00;0.00;;;;;;;18.31;69.79;100597.75;6322781;28;20479;-73
2023/09/08 04:19:24;;;;;;;0.00;0.00;;;;;;;18.28;69.47;100598.84;6325951;28;20113;-72
2023/09/08 04:22:25;;;;;;;0.00;0.00;;;;;;;18.27;69.05;100604.25;6345010;28;20043;-73
2023/09/08 04:25:26;;;;;;;0.00;0.00;;;;;;;18.24;69.27;100607.13;6349815;28;20608;-72
2023/09/08 04:28:27;;;;;;;0.00;0.00;;;;;;;18.34;69.37;100615.97;6349386;28;20942;-73
2023/09/08 04:31:28;;;;;;;0.00;0.00;;;;;;;18.25;69.75;100614.13;6349666;28;20052;-73
2023/09/08 04:34:29;;;;;;;0.00;0.00;;;;;;;18.26;69.09;100607.84;6347545;28;20495;-72
2023/09/08 04:37:30;;;;;;;0.00;0.00;;;;;;;18.36;69.20;100619.31;6328660;28;20044;-72
2023/09/08 04:40:34;;;;;;;0.00;0.00;;;;;;;18.40;69.34;100606.69;6327589;28;20074;-72
2023/09/08 04:43:37;;;;;;;0.00;0.00;;;;;;;18.47;68.86;100611.31;6349586;28;20052;-72
2023/09/08 04:46:39;;;;;;;0.00;0.00;;;;;;;18.50;68.76;100611.03;6348787;28;20125;-72
2023/09/08 04:49:40;;;;;;;0.00;0.00;;;;;;;18.64;68.81;100616.97;6347707;28;20067;-73
2023/09/08 04:52:40;;;;;;;0.00;0.00;;;;;;;18.65;68.75;100619.44;6347622;28;20048;-73
2023/09/08 04:55:42;;;;;;;0.00;0.00;;;;;;;18.63;68.57;100618.75;6348014;28;20047;-72
2023/09/08 04:58:43;;;;;;;0.00;0.00;;;;;;;18.57;68.60;100618.44;6347536;28;20502;-72
2023/09/08 05:01:44;;;;;;;0.00;0.00;;;;;;;18.74;68.37;100615.19;6335259;28;20074;-73
2023/09/08 05:04:47;;;;;;;0.00;0.00;;;;;;;18.81;68.22;100621.66;6338336;28;20507;-73
2023/09/08 05:07:53;;;;;;;0.00;0.00;;;;;;;18.89;67.31;100624.47;6347775;28;20052;-72
2023/09/08 05:10:56;;;;;;;0.00;0.00;;;;;;;18.95;67.38;100617.81;6347592;28;20487;-72
2023/09/08 05:13:57;;;;;;;0.00;0.00;;;;;;;18.96;66.88;100626.56;6348569;28;20051;-73
2023/09/08 05:16:58;;;;;;;0.00;0.00;;;;;;;18.93;67.21;100611.81;6348414;28;20051;-72
2023/09/08 05:20:01;;;;;;;0.00;0.00;;;;;;;18.95;67.19;100619.63;6347412;28;20288;-75
2023/09/08 05:23:02;;;;;;;0.00;0.00;;;;;;;19.02;67.13;100623.41;6344041;28;20055;-74
2023/09/08 05:26:03;;;;;;;0.00;0.00;;;;;;;19.02;67.70;100624.22;6343508;28;20039;-73
2023/09/08 05:29:05;;;;;;;0.00;0.00;;;;;;;19.07;67.25;100626.50;6341943;28;20048;-73
2023/09/08 05:32:06;;;;;;;0.00;0.00;;;;;;;19.26;67.86;100633.63;6343789;28;20055;-73
2023/09/08 05:35:10;;;;;;;0.00;0.00;;;;;;;19.33;66.38;100635.59;6346706;28;20047;-73
2023/09/08 05:38:14;;;;;;;0.00;0.00;;;;;;;19.51;66.49;100624.34;6348095;27;20050;-73
2023/09/08 05:41:15;;;;;;;0.00;0.00;;;;;;;19.67;65.79;100634.41;6346675;28;20126;-73
2023/09/08 05:44:16;;;;;;;0.00;0.00;;;;;;;19.77;66.03;100629.13;6346771;28;20047;-73
2023/09/08 05:47:17;;;;;;;0.00;0.00;;;;;;;19.69;65.17;100632.44;6347691;28;20047;-73
2023/09/08 05:50:18;;;;;;;0.00;0.00;;;;;;;19.93;64.45;100638.19;6346650;28;20047;-73
2023/09/08 05:53:18;;;;;;;0.10;0.10;;;;;;;20.06;64.03;100634.41;6347565;27;20054;-73
2023/09/08 05:56:20;;;;;;;0.00;0.00;;;;;;;20.25;63.95;100638.84;6346130;28;20533;-73
2023/09/08 05:59:23;;;;;;;0.00;0.00;;;;;;;20.47;64.02;100635.88;6346304;28;20048;-73
2023/09/08 06:02:24;;;;;;;0.00;0.00;;;;;;;20.54;63.22;100636.13;6345580;28;20048;-73
2023/09/08 06:05:24;;;;;;;0.00;0.00;;;;;;;20.71;62.60;100634.56;6346084;28;20159;-73
2023/09/08 06:08:25;;;;;;;0.00;0.00;;;;;;;20.58;63.29;100631.38;6347191;28;20144;-73
2023/09/08 06:11:28;;;;;;;0.00;0.00;;;;;;;21.07;62.33;100640.84;6345711;28;20483;-73
2023/09/08 06:14:29;;;;;;;0.00;0.00;;;;;;;21.23;62.20;100642.84;6345858;28;20068;-73
2023/09/08 06:17:30;;;;;;;0.00;0.00;;;;;;;21.27;61.96;100641.56;6345963;28;20051;-73
2023/09/08 06:20:31;;;;;;;0.00;0.00;;;;;;;21.32;60.48;100646.44;6345648;28;20047;-73
2023/09/08 06:23:35;;;;;;;0.00;0.00;;;;;;;21.51;60.71;100646.31;6345821;28;20109;-73
2023/09/08 06:26:37;;;;;;;0.00;0.00;;;;;;;21.68;59.92;100646.47;6346875;28;20434;-73
2023/09/08 06:29:43;;;;;;;0.00;0.00;;;;;;;21.89;60.09;100647.03;6346848;28;20047;-73
2023/09/08 06:32:44;;;;;;;0.00;0.00;;;;;;;21.93;60.08;100640.41;6346830;28;20050;-73
2023/09/08 06:35:46;;;;;;;0.00;0.00;;;;;;;22.24;59.86;100644.53;6345443;28;20044;-73
2023/09/08 06:38:49;;;;;;;0.00;0.00;;;;;;;22.09;58.85;100645.03;6345545;28;20054;-73
2023/09/08 06:41:49;;;;;;;0.00;0.00;;;;;;;22.44;59.27;100647.78;6346251;28;20049;-73
2023/09/08 06:44:53;;;;;;;0.00;0.00;;;;;;;22.48;58.69;100644.66;6346672;28;20486;-73
2023/09/08 06:47:54;;;;;;;0.00;0.00;;;;;;;22.64;57.91;100649.25;6345274;28;20558;-73
2023/09/08 06:50:56;;;;;;;;;;;;;;;22.83;58.45;100647.34;6345545;28;20051;-73
2023/09/08 06:54:00;;;;;;;0.00;0.00;;;;;;;22.87;57.50;100651.34;6346360;28;19951;-73
2023/09/08 06:57:01;;;;;;;0.00;0.00;;;;;;;22.99;57.33;100651.91;6346183;28;20498;-73
2023/09/08 07:00:05;;;;;;;0.00;0.00;;;;;;;;;;6344971;28;20048;-73
2023/09/08 07:03:08;;;;;;;0.00;0.00;;;;;;;23.17;57.51;100651.88;6345873;28;20388;-73
2023/09/08 07:06:11;;;;;;;0.00;0.00;;;;;;;23.31;56.14;100654.72;6344719;28;20501;-73
2023/09/08 07:09:12;;;;;;;0.00;0.00;;;;;;;23.37;57.04;100657.72;6345860;28;20047;-74
2023/09/08 07:12:13;;;;;;;0.00;0.00;;;;;;;23.55;55.09;100658.44;6344843;28;20055;-73
2023/09/08 07:15:16;;;;;;;0.00;0.00;;;;;;;23.68;56.29;100658.81;6344668;28;20141;-73
2023/09/08 07:18:17;;;;;;;0.00;0.00;;;;;;;23.86;56.17;100644.53;6344944;28;20126;-73
2023/09/08 07:21:18;;;;;;;0.00;0.00;;;;;;;24.20;55.88;100646.19;6344407;28;20044;-73
2023/09/08 07:24:19;;;;;;;0.00;0.00;;;;;;;24.05;54.08;100652.19;6345901;28;20291;-73
2023/09/08 07:27:20;;;;;;;0.00;0.00;;;;;;;24.25;53.35;100651.84;6345710;28;20044;-73
2023/09/08 07:30:21;;;;;;;0.00;0.00;;;;;;;24.39;53.31;100645.00;6344875;28;20052;-74
2023/09/08 07:33:24;;;;;;;0.00;0.00;;;;;;;24.38;54.20;100657.50;6344452;28;20073;-73
2023/09/08 07:36:25;;;;;;;0.00;0.00;;;;;;;24.82;53.88;100649.09;6345597;28;20506;-73
2023/09/08 07:39:27;;;;;;;0.00;0.00;;;;;;;24.76;53.32;100656.94;6345753;28;20082;-73
2023/09/08 07:42:27;;;;;;;0.10;0.10;;;;;;;25.14;53.86;100658.81;6345508;28;20091;-73
2023/09/08 07:45:28;;;;;;;0.00;0.00;;;;;;;25.05;52.84;100656.34;6345735;28;20097;-73
2023/09/08 07:48:29;;;;;;;0.00;0.00;;;;;;;25.33;52.73;100654.88;6345402;28;20051;-74
2023/09/08 07:51:30;;;;;;;0.00;0.00;;;;;;;25.32;51.37;100655.88;6347238;28;20048;-73
2023/09/08 07:54:34;;;;;;;0.00;0.00;;;;;;;25.72;51.27;100651.31;6350400;27;20051;-73
2023/09/08 07:57:35;;;;;;;0.00;0.00;;;;;;;25.95;50.42;100655.03;6349422;28;20047;-73
2023/09/08 08:00:36;;;;;;;0.00;0.00;;;;;;;26.21;49.75;100655.47;6350021;28;20101;-73
2023/09/08 08:03:40;;;;;;;0.00;0.00;;;;;;;26.45;50.35;100654.38;6348863;28;20449;-73
2023/09/08 08:06:43;;;;;;;0.00;0.00;;;;;;;26.71;50.23;100661.16;6349032;28;20044;-74
2023/09/08 08:09:47;;;;;;;0.00;0.00;;;;;;;26.67;48.20;100658.03;6350385;27;20058;-73
2023/09/08 08:13:07;;;;;;;0.10;0.10;;;;;;;26.87;48.13;100662.81;6334783;28;20490;-73
2023/09/08 08:16:08;;;;;;;0.00;0.00;;;;;;;27.11;47.43;100659.00;6350293;28;20081;-73
2023/09/08 08:19:10;;;;;;;1.25;0.43;;;;;;;27.19;46.71;100660.75;6348707;28;20070;-73
2023/09/08 08:22:11;;;;;;;0.77;0.65;;;;;;;27.19;45.82;100647.34;6348472;28;20483;-73
2023/09/08 08:25:15;;;;;;;0.00;0.00;;;;;;;27.32;45.37;100648.38;6349871;28;20054;-73
2023/09/08 08:28:16;;;;;;;0.00;0.00;;;;;;;27.59;45.16;100653.16;6348462;28;20093;-73
2023/09/08 08:31:17;;;;;;;0.10;0.10;;;;;;;27.92;44.43;100658.88;6349838;28;20047;-73
2023/09/08 08:34:17;;;;;;;0.00;0.00;;;;;;;27.88;44.54;100650.41;6349571;28;20052;-73
2023/09/08 08:37:23;;;;;;;0.00;0.00;;;;;;;28.17;43.84;100656.63;6349524;28;20047;-73
2023/09/08 08:40:29;;;;;;;0.03;0.03;;;;;;;27.71;42.37;100648.97;6348100;28;20130;-73
2023/09/08 08:43:31;;;;;;;0.00;0.00;;;;;;;28.13;42.19;100641.94;6349619;28;20521;-73
2023/09/08 08:46:36;;;;;;;0.00;0.00;;;;;;;28.38;41.06;100647.69;6348089;28;20082;-73
2023/09/08 08:49:42;;;;;;;0.00;0.00;;;;;;;28.56;39.51;100641.00;6348387;28;20043;-73
2023/09/08 08:52:45;;;;;;;0.00;0.00;;;;;;;28.43;41.48;100649.78;6349052;28;20270;-73
2023/09/08 08:55:49;;;;;;;0.00;0.00;;;;;;;27.99;41.02;100654.41;6349367;28;20047;-73
2023/09/08 08:58:53;;;;;;;0.00;0.00;;;;;;;28.47;41.68;100651.88;6347849;28;20056;-73
2023/09/08 09:01:58;;;;;;;0.00;0.00;;;;;;;28.80;42.58;100643.22;6346348;28;20056;-74
2023/09/08 09:05:01;;;;;;;0.00;0.00;;;;;;;28.98;41.19;100644.53;6348966;28;20506;-74
2023/09/08 09:08:04;;;;;;;0.00;0.00;;;;;;;29.19;39.58;100654.34;6348804;28;20047;-73
2023/09/08 09:11:07;;;;;;;0.00;0.00;;;;;;;29.31;40.36;100652.75;6347645;28;20073;-74
2023/09/08 09:14:10;;;;;;;0.10;0.10;;;;;;;29.32;41.97;100652.56;6348542;28;20043;-73
2023/09/08 09:17:11;;;;;;;0.03;0.03;;;;;;;29.44;39.02;100646.56;6348673;28;20047;-73
2023/09/08 09:20:17;;;;;;;0.00;0.00;;;;;;;29.63;39.19;100644.94;6348411;28;20047;-74
2023/09/08 09:23:32;;;;;;;0.00;0.00;;;;;;;29.72;39.81;100644.59;6348462;28;20052;-74
2023/09/08 09:26:33;;;;;;;0.00;0.00;;;;;;;29.75;38.92;100654.09;6347084;28;20052;-74
2023/09/08 09:29:46;;;;;;;0.10;0.10;;;;;;;30.15;38.49;100654.13;6348340;28;20047;-74
2023/09/08 09:32:51;;;;;;;0.43;0.30;;;;;;;30.02;41.44;100651.41;6347004;28;20052;-73
2023/09/08 09:35:53;;;;;;;0.00;0.00;;;;;;;30.17;37.87;100649.34;6347324;28;20043;-74
2023/09/08 09:38:58;;;;;;;0.00;0.00;;;;;;;30.13;37.45;100645.44;6346999;28;20052;-74
2023/09/08 09:41:59;;;;;;;0.00;0.00;;;;;;;29.79;36.88;100641.91;6348295;28;20437;-74
2023/09/08 09:45:02;;;;;;;0.00;0.00;;;;;;;30.15;37.76;100647.91;6347793;28;20452;-74
2023/09/08 09:48:04;;;;;;;0.28;0.28;;;;;;;30.32;35.06;100633.00;6346907;28;20100;-74
2023/09/08 09:51:20;;;;;;;0.00;0.00;;;;;;;29.43;35.92;100636.88;6346664;28;20051;-73
2023/09/08 09:54:22;;;;;;;0.00;0.00;;;;;;;30.19;35.69;100641.91;6347602;28;20116;-73
2023/09/08 09:57:23;;;;;;;0.00;0.00;;;;;;;30.57;34.40;100630.47;6346450;28;20047;-74
2023/09/08 10:00:27;;;;;;;0.00;0.00;;;;;;;30.36;34.36;100631.56;6347438;28;20070;-73
2023/09/08 10:03:30;;;;;;;0.00;0.00;;;;;;;30.40;34.46;100631.97;6347272;28;20138;-74
2023/09/08 10:06:36;;;;;;;0.00;0.00;;;;;;;30.88;34.96;100632.47;6346640;28;20086;-74
2023/09/08 10:09:37;;;;;;;0.10;0.10;;;;;;;31.34;34.13;100636.00;6347445;28;20083;-73
2023/09/08 10:12:40;;;;;;;0.00;0.00;;;;;;;31.53;35.19;100629.66;6345904;28;20145;-73
2023/09/08 10:15:42;;;;;;;0.00;0.00;;;;;;;31.47;34.23;100629.72;6345889;28;20077;-73
2023/09/08 10:18:44;;;;;;;;;;;;;;;31.68;35.13;100634.72;6346392;28;20051;-73
2023/09/08 10:21:48;;;;;;;0.00;0.00;;;;;;;31.77;36.05;100631.75;6347230;28;19964;-73
2023/09/08 10:24:53;;;;;;;0.00;0.00;;;;;;;32.11;34.93;100625.91;6345790;28;20043;-73
2023/09/08 10:27:54;;;;;;;0.20;0.20;;;;;;;32.02;36.27;100615.59;6347033;28;20396;-73
2023/09/08 10:30:55;;;;;;;;;;;;;;;32.11;32.94;100612.41;6347348;28;20043;-73
2023/09/08 10:33:57;;;;;;;0.10;0.10;;;;;;;32.13;33.26;100607.59;6362857;27;19935;-73
2023/09/08 10:36:58;;;;;;;0.00;0.00;;;;;;;31.93;32.49;100604.25;6345631;28;20062;-74
2023/09/08 10:40:29;;;;;;;0.00;0.00;;;;;;;31.85;34.14;100608.03;6346529;28;20134;-74
2023/09/08 10:43:30;;;;;;;0.00;0.00;;;;;;;31.62;35.50;100603.25;6337368;28;20063;-74
2023/09/08 10:46:32;;;;;;;0.00;0.00;;;;;;;31.62;36.06;100607.81;6342585;28;20403;-74
2023/09/08 10:49:38;;;;;;;0.00;0.00;;;;;;;31.68;35.06;100596.97;6345143;28;20083;-74
2023/09/08 10:52:41;;;;;;;0.00;0.00;;;;;;;32.10;36.99;100596.44;6346319;28;20054;-74
2023/09/08 10:55:53;;;;;;;0.05;0.05;;;;;;;32.30;35.93;100593.53;6345839;28;20047;-74
2023/09/08 10:58:54;;;;;;;0.00;0.00;;;;;;;32.14;36.12;100594.94;6345504;28;20047;-74
2023/09/08 11:01:55;;;;;;;0.00;0.00;;;;;;;32.42;35.17;100594.44;6344815;28;20094;-74
2023/09/08 11:04:59;;;;;;;0.00;0.00;;;;;;;32.68;36.24;100590.63;6344901;28;20055;-74
2023/09/08 11:08:03;;;;;;;0.00;0.00;;;;;;;32.61;36.30;100592.56;6346365;28;20411;-74
2023/09/08 11:11:04;;;;;;;0.00;0.00;;;;;;;32.60;34.31;100588.25;6344675;28;20441;-75
2023/09/08 11:14:10;;;;;;;0.00;0.00;;;;;;;32.48;35.44;100581.91;6346153;28;20140;-74
2023/09/08 11:17:10;;;;;;;0.13;0.13;;;;;;;32.51;35.99;100589.56;6346289;28;20058;-75
2023/09/08 11:20:12;;;;;;;0.28;0.28;;;;;;;32.62;34.18;100596.13;6344793;28;20051;-74
2023/09/08 11:23:15;;;;;;;0.00;0.00;;;;;;;32.45;33.23;100585.06;6344550;28;20047;-74
2023/09/08 11:26:18;;;;;;;0.20;0.10;;;;;;;32.13;33.25;100580.63;6345115;28;20132;-74
2023/09/08 11:29:19;;;;;;;0.00;0.00;;;;;;;32.18;34.27;100587.22;6344544;28;20058;-74
2023/09/08 11:32:20;;;;;;;0.00;0.00;;;;;;;32.34;34.68;100578.53;6345776;28;20044;-74
2023/09/08 11:35:23;;;;;;;0.03;0.03;;;;;;;32.89;35.21;100577.69;6345408;28;20135;-74
2023/09/08 11:38:31;;;;;;;0.00;0.00;;;;;;;33.06;33.65;100577.88;6345786;28;20453;-74
2023/09/08 11:41:32;;;;;;;0.00;0.00;;;;;;;33.09;31.89;100574.72;6345108;28;20048;-74
2023/09/08 11:44:35;;;;;;;0.00;0.00;;;;;;;33.10;32.58;100573.69;6345826;28;20552;-73
2023/09/08 11:47:36;;;;;;;0.00;0.00;;;;;;;32.91;34.03;100565.59;6344205;28;20048;-73
2023/09/08 11:50:37;;;;;;;0.00;0.00;;;;;;;33.03;32.68;100565.66;6344141;28;20047;-73
2023/09/08 11:53:38;;;;;;;0.00;0.00;;;;;;;33.05;32.92;100557.28;6360984;27;20074;-73
2023/09/08 11:56:40;;;;;;;0.00;0.00;;;;;;;33.27;31.98;100554.94;6342930;28;20498;-73
2023/09/08 11:59:41;;;;;;;0.00;0.00;;;;;;;33.37;35.17;100560.59;6344017;28;20151;-73
2023/09/08 12:02:42;;;;;;;;;;;;;;;33.26;32.64;100556.00;6345560;28;20055;-73
2023/09/08 12:05:52;;;;;;;0.10;0.00;;;;;;;33.21;29.64;100548.56;6344067;28;19920;-73
2023/09/08 12:09:02;;;;;;;0.00;0.00;;;;;;;33.35;32.04;100551.06;6344096;28;20135;-73
2023/09/08 12:12:03;;;;;;;0.00;0.00;;;;;;;33.60;34.50;100548.16;6345491;28;20097;-73
2023/09/08 12:15:04;;;;;;;;;;;;;;;33.44;32.49;100542.41;6344303;28;20044;-73
2023/09/08 12:18:07;;;;;;;0.80;0.22;;;;;;;33.36;29.84;100540.03;6344193;28;19964;-74
2023/09/08 12:21:09;;;;;;;0.00;0.00;;;;;;;33.08;32.74;100529.84;6343757;28;20440;-73
2023/09/08 12:24:13;;;;;;;1.55;0.05;;;;;;;32.75;30.15;100530.28;6345096;28;20482;-74
2023/09/08 12:27:18;;;;;;;0.00;0.00;;;;;;;32.79;31.82;100532.31;6343633;28;20490;-74
2023/09/08 12:30:21;;;;;;;0.00;0.00;;;;;;;33.08;29.71;100525.25;6344060;28;20177;-73
2023/09/08 12:33:22;;;;;;;0.00;0.00;;;;;;;33.00;30.22;100516.63;6345059;28;20048;-73
2023/09/08 12:36:25;;;;;;;0.00;0.00;;;;;;;33.09;29.88;100516.09;6361529;28;20047;-73
2023/09/08 12:39:26;;;;;;;0.00;0.00;;;;;;;33.18;31.27;100515.78;6349528;28;20093;-74
2023/09/08 12:42:29;;;;;;;;;;;;;;;33.07;31.25;100507.38;6349585;28;20494;-73
2023/09/08 12:45:30;;;;;;;0.08;0.08;;;;;;;33.24;30.21;100506.75;6349182;28;19965;-73
2023/09/08 12:48:31;;;;;;;0.00;0.00;;;;;;;32.84;28.27;100507.28;6349188;28;20052;-73
2023/09/08 12:51:32;;;;;;;0.00;0.00;;;;;;;32.89;29.37;100492.03;6347792;28;20054;-72
2023/09/08 12:54:33;;;;;;;0.00;0.00;;;;;;;32.80;32.57;100493.44;6348793;28;20059;-72
2023/09/08 12:57:37;;;;;;;0.00;0.00;;;;;;;32.56;31.46;100489.81;6348737;28;20585;-74
2023/09/08 13:00:40;;;;;;;0.00;0.00;;;;;;;32.76;31.79;100489.56;6349013;28;20054;-74
2023/09/08 13:03:41;;;;;;;0.20;0.20;;;;;;;32.42;30.47;100494.53;6347532;28;20056;-74
2023/09/08 13:06:45;;;;;;;0.00;0.00;;;;;;;32.60;33.24;100492.88;6347557;28;20052;-74
2023/09/08 13:09:46;;;;;;;0.13;0.13;;;;;;;32.59;29.21;100486.66;6347743;28;20047;-73
2023/09/08 13:12:48;;;;;;;0.00;0.00;;;;;;;32.50;31.45;100480.72;6347960;28;20470;-74
2023/09/08 13:15:51;;;;;;;0.00;0.00;;;;;;;32.67;30.35;100489.03;6348568;28;20055;-74
2023/09/08 13:18:55;;;;;;;0.10;0.10;;;;;;;32.87;31.19;100479.81;6348754;28;20052;-74
2023/09/08 13:21:57;;;;;;;0.00;0.00;;;;;;;32.88;30.77;100482.28;6347405;28;20096;-74
2023/09/08 13:24:58;;;;;;;0.00;0.00;;;;;;;32.78;28.16;100475.78;6347530;28;20054;-74
2023/09/08 13:27:59;;;;;;;0.00;0.00;;;;;;;32.71;29.07;100471.31;6347136;28;20047;-74
2023/09/08 13:31:00;;;;;;;;;;;;;;;32.59;30.52;100469.63;6348656;28;20079;-73
2023/09/08 13:34:00;;;;;;;0.00;0.00;;;;;;;32.64;32.68;100465.19;6347085;28;20366;-73
2023/09/08 13:37:04;;;;;;;0.00;0.00;;;;;;;32.56;33.37;100465.50;6348363;28;20051;-74
2023/09/08 13:40:06;;;;;;;0.10;0.10;;;;;;;32.73;32.84;100466.50;6346876;28;20043;-74
2023/09/08 13:43:11;;;;;;;0.00;0.00;;;;;;;32.71;30.38;100455.09;6347035;28;20055;-74
2023/09/08 13:46:12;;;;;;;5.03;1.60;;;;;;;32.50;30.96;100453.72;6347856;28;20115;-74
2023/09/08 13:49:16;;;;;;;0.00;0.00;;;;;;;32.47;30.36;100454.19;6346012;28;20542;-74
2023/09/08 13:52:19;;;;;;;0.08;0.08;;;;;;;32.31;30.64;100449.41;6348363;28;20193;-74
2023/09/08 13:55:23;;;;;;;0.00;0.00;;;;;;;32.55;30.66;100452.22;6363404;27;20043;-74
2023/09/08 13:58:24;;;;;;;2.55;0.68;;;;;;;32.32;31.80;100445.63;6347804;28;20051;-74
2023/09/08 14:01:27;;;;;;;0.25;0.25;;;;;;;32.30;30.81;100439.66;6346261;28;20047;-74
2023/09/08 14:04:29;;;;;;;0.00;0.00;;;;;;;32.07;31.45;100438.47;6347367;28;20489;-73
2023/09/08 14:07:32;;;;;;;0.00;0.00;;;;;;;31.98;31.21;100433.56;6346167;28;20044;-73
2023/09/08 14:10:32;;;;;;;0.00;0.00;;;;;;;31.44;31.21;100430.63;6347551;28;20039;-73
2023/09/08 14:13:37;;;;;;;0.00;0.00;;;;;;;31.61;32.11;100429.00;6341123;28;20052;-73